createdAt,value
2019-04-06T00:00:15.959Z,8.80
2019-04-06T00:02:45.512Z,8.80
2019-04-06T00:05:15.821Z,8.80
2019-04-06T00:07:45.442Z,8.80
2019-04-06T00:10:16.857Z,8.80
2019-04-06T00:12:47.899Z,8.80
2019-04-06T00:15:19.075Z,8.70
2019-04-06T00:17:48.500Z,8.60
2019-04-06T00:20:19.063Z,8.70
2019-04-06T00:22:48.919Z,8.70
2019-04-06T00:25:18.597Z,8.60
2019-04-06T00:27:48.238Z,8.60
2019-04-06T00:30:18.533Z,8.60
2019-04-06T00:32:49.821Z,8.60
2019-04-06T00:35:19.308Z,8.60
2019-04-06T00:37:48.914Z,8.60
2019-04-06T00:40:18.538Z,8.70
2019-04-06T00:42:48.381Z,8.60
2019-04-06T00:45:19.577Z,8.60
2019-04-06T00:47:50.641Z,8.60
2019-04-06T00:50:21.692Z,8.60
2019-04-06T00:52:51.164Z,8.70
2019-04-06T00:55:20.841Z,8.70
2019-04-06T00:57:50.663Z,8.60
2019-04-06T01:00:20.117Z,8.70
2019-04-06T01:02:49.588Z,8.70
2019-04-06T01:05:21.065Z,8.70
2019-04-06T01:07:51.070Z,8.70
2019-04-06T01:10:20.733Z,8.70
2019-04-06T01:12:51.780Z,8.80
2019-04-06T01:15:25.636Z,8.80
2019-04-06T01:17:56.262Z,8.80
2019-04-06T01:20:28.858Z,8.80
2019-04-06T01:22:58.832Z,8.80
2019-04-06T01:25:28.337Z,8.80
2019-04-06T01:27:59.493Z,8.80
2019-04-06T01:30:29.016Z,8.80
2019-04-06T01:32:58.488Z,8.70
2019-04-06T01:35:27.922Z,8.70
2019-04-06T01:37:57.394Z,8.70
2019-04-06T01:40:26.899Z,8.70
2019-04-06T01:42:56.402Z,8.70
2019-04-06T01:45:26.013Z,8.70
2019-04-06T01:47:55.588Z,8.70
2019-04-06T01:50:26.463Z,8.70
2019-04-06T01:52:55.973Z,8.70
2019-04-06T01:55:25.543Z,8.70
2019-04-06T01:57:56.807Z,8.70
2019-04-06T02:00:26.786Z,8.70
2019-04-06T02:02:59.667Z,8.70
2019-04-06T02:05:29.147Z,8.70
2019-04-06T02:08:00.006Z,8.70
2019-04-06T02:10:30.272Z,8.70
2019-04-06T02:13:01.822Z,8.70
2019-04-06T02:15:31.327Z,8.70
2019-04-06T02:18:05.898Z,8.70
2019-04-06T02:20:33.916Z,8.70
2019-04-06T02:23:03.523Z,8.70
2019-04-06T02:25:40.017Z,8.70
2019-04-06T02:28:11.030Z,8.70
2019-04-06T02:30:42.177Z,8.80
2019-04-06T02:33:29.408Z,8.70
2019-04-06T02:36:06.587Z,8.70
2019-04-06T02:38:37.660Z,8.60
2019-04-06T02:41:09.988Z,8.60
2019-04-06T02:43:40.536Z,8.50
2019-04-06T02:46:10.140Z,8.40
2019-04-06T02:48:39.582Z,8.30
2019-04-06T02:51:10.481Z,8.20
2019-04-06T02:53:41.519Z,8.30
2019-04-06T02:56:11.012Z,8.30
2019-04-06T02:58:40.631Z,8.30
2019-04-06T03:01:10.170Z,8.30
2019-04-06T03:03:39.631Z,8.30
2019-04-06T03:06:10.786Z,8.30
2019-04-06T03:08:40.312Z,8.20
2019-04-06T03:11:10.073Z,8.20
2019-04-06T03:13:39.598Z,8.10
2019-04-06T03:16:08.987Z,8.10
2019-04-06T03:18:38.864Z,8.10
2019-04-06T03:21:08.323Z,8.00
2019-04-06T03:23:50.600Z,8.00
2019-04-06T03:26:12.015Z,8.00
2019-04-06T03:28:41.444Z,7.90
2019-04-06T03:31:11.004Z,7.90
2019-04-06T03:33:41.126Z,7.90
2019-04-06T03:36:10.729Z,7.80
2019-04-06T03:38:40.393Z,7.80
2019-04-06T03:41:09.925Z,7.70
2019-04-06T03:43:40.936Z,7.70
2019-04-06T03:46:10.513Z,7.70
2019-04-06T03:48:41.664Z,7.70
2019-04-06T03:51:11.058Z,7.70
2019-04-06T03:53:40.472Z,7.70
2019-04-06T03:56:09.901Z,7.60
2019-04-06T03:58:44.416Z,7.60
2019-04-06T04:01:13.888Z,7.60
2019-04-06T04:03:43.668Z,7.60
2019-04-06T04:06:13.117Z,7.50
2019-04-06T04:08:42.605Z,7.50
2019-04-06T04:11:11.927Z,7.50
2019-04-06T04:13:41.515Z,7.50
2019-04-06T04:16:10.959Z,7.50
2019-04-06T04:18:40.338Z,7.50
2019-04-06T04:21:09.721Z,7.50
2019-04-06T04:23:39.118Z,7.40
2019-04-06T04:26:08.860Z,7.50
2019-04-06T04:28:38.889Z,7.40
2019-04-06T04:31:10.005Z,7.40
2019-04-06T04:33:42.766Z,7.40
2019-04-06T04:36:12.245Z,7.40
2019-04-06T04:38:41.592Z,7.30
2019-04-06T04:41:11.045Z,7.30
2019-04-06T04:43:50.408Z,7.20
2019-04-06T04:46:16.173Z,7.20
2019-04-06T04:48:45.566Z,7.20
2019-04-06T04:51:15.048Z,7.20
2019-04-06T04:53:46.822Z,7.20
2019-04-06T04:56:17.559Z,7.20
2019-04-06T04:58:47.049Z,7.20
2019-04-06T05:01:18.990Z,7.10
2019-04-06T05:03:48.325Z,7.10
2019-04-06T05:06:19.451Z,7.10
2019-04-06T05:08:51.678Z,7.20
2019-04-06T05:11:21.045Z,7.10
2019-04-06T05:14:11.902Z,7.20
2019-04-06T05:16:41.818Z,7.20
2019-04-06T05:19:12.985Z,7.20
2019-04-06T05:21:42.875Z,7.20
2019-04-06T05:24:14.837Z,7.20
2019-04-06T05:26:44.256Z,7.20
2019-04-06T05:29:14.075Z,7.20
2019-04-06T05:31:43.807Z,7.30
2019-04-06T05:34:13.366Z,7.30
2019-04-06T05:36:45.888Z,7.30
2019-04-06T05:39:15.251Z,7.30
2019-04-06T05:41:46.258Z,7.30
2019-04-06T05:44:15.683Z,7.30
2019-04-06T05:46:48.646Z,7.40
2019-04-06T05:49:18.098Z,7.40
2019-04-06T05:51:47.588Z,7.40
2019-04-06T05:54:16.977Z,7.50
2019-04-06T05:56:48.017Z,7.60
2019-04-06T05:59:17.358Z,7.50
2019-04-06T06:01:48.496Z,7.60
2019-04-06T06:04:17.967Z,7.60
2019-04-06T06:06:48.287Z,7.70
2019-04-06T06:09:18.395Z,7.70
2019-04-06T06:11:47.792Z,7.80
2019-04-06T06:14:17.242Z,7.80
2019-04-06T06:16:46.786Z,7.90
2019-04-06T06:19:16.553Z,7.90
2019-04-06T06:21:46.058Z,8.00
2019-04-06T06:24:17.099Z,8.00
2019-04-06T06:26:46.640Z,8.10
2019-04-06T06:29:16.345Z,8.20
2019-04-06T06:31:45.925Z,8.20
2019-04-06T06:34:15.309Z,8.40
2019-04-06T06:36:44.795Z,8.50
2019-04-06T06:39:14.678Z,8.60
2019-04-06T06:41:44.341Z,8.80
2019-04-06T06:44:16.512Z,8.80
2019-04-06T06:46:47.362Z,8.90
2019-04-06T06:49:18.690Z,8.90
2019-04-06T06:51:48.273Z,8.90
2019-04-06T06:54:17.733Z,9.00
2019-04-06T06:56:47.135Z,9.10
2019-04-06T06:59:16.718Z,9.20
2019-04-06T07:01:46.117Z,9.30
2019-04-06T07:04:18.908Z,9.40
2019-04-06T07:06:48.351Z,9.50
2019-04-06T07:09:17.874Z,9.50
2019-04-06T07:11:49.529Z,9.40
2019-04-06T07:14:19.022Z,9.40
2019-04-06T07:16:48.792Z,9.40
2019-04-06T07:19:18.611Z,9.40
2019-04-06T07:21:47.974Z,9.40
2019-04-06T07:24:17.391Z,9.40
2019-04-06T07:26:48.294Z,9.50
2019-04-06T07:29:17.760Z,9.50
2019-04-06T07:31:47.130Z,9.50
2019-04-06T07:34:21.729Z,9.50
2019-04-06T07:36:52.892Z,9.60
2019-04-06T07:39:22.326Z,9.60
2019-04-06T07:41:51.632Z,9.80
2019-04-06T07:44:21.092Z,9.80
2019-04-06T07:46:50.616Z,9.90
2019-04-06T07:49:20.228Z,10.00
2019-04-06T07:51:49.662Z,10.10
2019-04-06T07:54:19.101Z,10.20
2019-04-06T07:56:48.388Z,10.30
2019-04-06T07:59:17.694Z,10.50
2019-04-06T08:01:48.359Z,10.60
2019-04-06T08:04:18.259Z,10.70
2019-04-06T08:06:47.547Z,10.80
2019-04-06T08:09:17.175Z,10.90
2019-04-06T08:11:46.460Z,11.20
2019-04-06T08:14:15.974Z,11.60
2019-04-06T08:16:45.338Z,11.90
2019-04-06T08:19:14.871Z,12.30
2019-04-06T08:21:44.470Z,12.50
2019-04-06T08:24:13.977Z,12.70
2019-04-06T08:26:43.327Z,13.00
2019-04-06T08:29:12.644Z,13.20
2019-04-06T08:31:41.950Z,13.40
2019-04-06T08:34:13.453Z,13.70
2019-04-06T08:36:42.552Z,13.90
2019-04-06T08:39:12.168Z,14.10
2019-04-06T08:41:41.468Z,14.40
2019-04-06T08:44:10.780Z,14.50
2019-04-06T08:46:40.193Z,14.70
2019-04-06T08:49:09.543Z,14.70
2019-04-06T08:51:38.835Z,14.80
2019-04-06T08:54:08.144Z,15.00
2019-04-06T08:56:37.707Z,15.10
2019-04-06T08:59:11.974Z,15.20
2019-04-06T09:01:38.019Z,15.20
2019-04-06T09:04:07.327Z,15.30
2019-04-06T09:06:36.623Z,15.30
2019-04-06T09:09:07.728Z,15.50
2019-04-06T09:11:37.050Z,15.50
2019-04-06T09:14:06.363Z,15.50
2019-04-06T09:16:35.927Z,15.50
2019-04-06T09:19:05.316Z,15.60
2019-04-06T09:21:34.879Z,15.70
2019-04-06T09:24:04.172Z,15.70
2019-04-06T09:26:33.528Z,15.80
2019-04-06T09:29:02.986Z,15.60
2019-04-06T09:31:32.514Z,15.70
2019-04-06T09:34:01.807Z,15.80
2019-04-06T09:36:31.110Z,16.00
2019-04-06T09:39:00.549Z,16.30
2019-04-06T09:41:30.464Z,16.50
2019-04-06T09:43:59.779Z,16.50
2019-04-06T09:46:40.024Z,16.70
2019-04-06T09:49:26.098Z,16.90
2019-04-06T09:52:13.345Z,17.20
2019-04-06T09:54:44.516Z,17.30
2019-04-06T09:57:18.443Z,17.40
2019-04-06T09:59:49.739Z,17.50
2019-04-06T10:02:20.687Z,17.40
2019-04-06T10:04:51.635Z,17.30
2019-04-06T10:07:22.826Z,17.40
2019-04-06T10:10:10.411Z,17.60
2019-04-06T10:12:41.345Z,17.50
2019-04-06T10:15:15.343Z,17.60
2019-04-06T10:17:49.223Z,17.60
2019-04-06T10:20:38.631Z,17.70
2019-04-06T10:23:16.068Z,17.80
2019-04-06T10:25:53.008Z,17.60
2019-04-06T10:28:40.314Z,17.30
2019-04-06T10:31:23.872Z,17.30
2019-04-06T10:34:04.302Z,17.40
2019-04-06T10:36:44.067Z,17.50
2019-04-06T10:39:17.896Z,17.40
2019-04-06T10:42:05.363Z,17.30
2019-04-06T10:44:36.491Z,17.30
2019-04-06T10:47:07.656Z,17.20
2019-04-06T10:49:54.859Z,17.30
2019-04-06T10:52:25.793Z,17.40
2019-04-06T10:54:56.828Z,17.50
2019-04-06T10:57:37.035Z,17.40
2019-04-06T11:00:14.284Z,17.30
2019-04-06T11:02:48.432Z,17.20
2019-04-06T11:05:19.631Z,17.00
2019-04-06T11:07:50.588Z,16.70
2019-04-06T11:10:36.591Z,16.80
2019-04-06T11:13:13.780Z,16.80
2019-04-06T11:16:01.211Z,16.80
2019-04-06T11:18:35.255Z,16.80
2019-04-06T11:21:09.265Z,16.70
2019-04-06T11:23:40.292Z,16.70
2019-04-06T11:26:29.680Z,16.80
2019-04-06T11:29:06.899Z,16.90
2019-04-06T11:31:54.655Z,17.10
2019-04-06T11:34:43.743Z,17.50
2019-04-06T11:37:17.844Z,17.70
2019-04-06T11:39:57.523Z,17.60
2019-04-06T11:42:28.461Z,17.50
2019-04-06T11:45:11.650Z,17.70
2019-04-06T11:47:42.918Z,17.80
2019-04-06T11:50:16.932Z,17.90
2019-04-06T11:52:50.946Z,17.90
2019-04-06T11:55:25.030Z,18.20
2019-04-06T11:57:56.287Z,18.90
2019-04-06T12:00:36.167Z,19.30
2019-04-06T12:03:07.099Z,19.20
2019-04-06T12:05:56.651Z,19.40
2019-04-06T12:08:43.886Z,19.80
2019-04-06T12:11:15.398Z,20.10
2019-04-06T12:14:04.410Z,20.00
2019-04-06T12:16:52.139Z,20.20
2019-04-06T12:19:34.833Z,20.40
2019-04-06T12:22:18.479Z,20.10
2019-04-06T12:24:50.232Z,19.80
2019-04-06T12:27:27.527Z,19.90
2019-04-06T12:29:58.440Z,19.80
2019-04-06T12:32:29.367Z,19.50
2019-04-06T12:35:03.067Z,19.80
2019-04-06T12:37:50.793Z,19.90
2019-04-06T12:40:24.432Z,19.70
2019-04-06T12:43:10.551Z,19.70
2019-04-06T12:45:53.008Z,19.50
2019-04-06T12:48:26.908Z,19.10
2019-04-06T12:50:57.977Z,18.90
2019-04-06T12:53:31.772Z,18.80
2019-04-06T12:56:09.272Z,18.40
2019-04-06T12:58:52.263Z,18.20
2019-04-06T13:01:23.211Z,17.80
2019-04-06T13:03:54.175Z,17.60
2019-04-06T13:06:43.112Z,17.40
2019-04-06T13:09:20.040Z,17.40
2019-04-06T13:11:53.818Z,17.50
2019-04-06T13:14:25.064Z,17.50
2019-04-06T13:17:14.292Z,17.50
2019-04-06T13:19:45.266Z,17.50
2019-04-06T13:22:28.208Z,17.60
2019-04-06T13:25:08.486Z,17.50
2019-04-06T13:27:49.369Z,17.50
2019-04-06T13:30:26.615Z,17.50
2019-04-06T13:32:58.162Z,17.60
2019-04-06T13:35:44.915Z,17.50
2019-04-06T13:38:18.820Z,17.50
2019-04-06T13:40:58.717Z,17.70
2019-04-06T13:43:29.769Z,17.80
2019-04-06T13:46:17.043Z,17.90
2019-04-06T13:48:56.836Z,18.00
2019-04-06T13:51:27.787Z,18.10
2019-04-06T13:54:10.916Z,18.20
2019-04-06T13:56:41.867Z,18.00
2019-04-06T13:59:19.126Z,17.90
2019-04-06T14:01:53.076Z,17.90
2019-04-06T14:04:24.008Z,17.90
2019-04-06T14:07:00.649Z,17.80
2019-04-06T14:09:31.586Z,17.80
2019-04-06T14:12:02.532Z,17.60
2019-04-06T14:14:51.833Z,17.50
2019-04-06T14:17:39.287Z,17.50
2019-04-06T14:20:10.451Z,17.50
2019-04-06T14:22:49.010Z,17.60
2019-04-06T14:25:23.698Z,17.50
2019-04-06T14:27:54.651Z,17.50
2019-04-06T14:30:25.722Z,17.60
2019-04-06T14:32:59.749Z,17.70
2019-04-06T14:35:45.711Z,17.60
2019-04-06T14:38:22.701Z,17.60
2019-04-06T14:40:56.848Z,17.70
2019-04-06T14:43:30.449Z,17.70
2019-04-06T14:46:18.606Z,17.60
2019-04-06T14:48:52.419Z,17.60
2019-04-06T14:51:26.239Z,17.60
2019-04-06T14:54:00.094Z,17.60
2019-04-06T14:56:34.022Z,17.70
2019-04-06T14:59:20.155Z,17.80
2019-04-06T15:02:06.288Z,18.00
2019-04-06T15:04:43.459Z,18.30
2019-04-06T15:07:14.780Z,18.80
2019-04-06T15:09:51.832Z,19.20
2019-04-06T15:12:25.667Z,19.70
2019-04-06T15:15:05.338Z,20.20
2019-04-06T15:17:48.487Z,20.50
2019-04-06T15:20:22.756Z,20.80
2019-04-06T15:23:12.411Z,21.20
2019-04-06T15:25:59.623Z,21.60
2019-04-06T15:28:39.781Z,21.90
2019-04-06T15:31:13.615Z,22.10
2019-04-06T15:33:44.865Z,22.10
2019-04-06T15:36:16.205Z,22.20
2019-04-06T15:38:47.428Z,22.00
2019-04-06T15:41:33.339Z,21.70
2019-04-06T15:44:20.903Z,21.50
2019-04-06T15:46:58.159Z,21.30
2019-04-06T15:49:46.132Z,21.00
2019-04-06T15:52:19.794Z,21.00
2019-04-06T15:54:53.447Z,21.20
2019-04-06T15:57:24.526Z,21.20
2019-04-06T15:59:55.503Z,21.40
2019-04-06T16:02:29.704Z,21.40
2019-04-06T16:05:04.027Z,21.20
2019-04-06T16:07:37.702Z,21.10
2019-04-06T16:10:25.013Z,21.10
2019-04-06T16:12:55.955Z,21.10
2019-04-06T16:15:27.153Z,21.00
2019-04-06T16:18:13.843Z,20.70
2019-04-06T16:20:58.434Z,20.70
2019-04-06T16:23:32.419Z,21.00
2019-04-06T16:26:03.359Z,21.20
2019-04-06T16:28:46.091Z,21.20
2019-04-06T16:31:19.703Z,21.30
2019-04-06T16:33:56.669Z,21.40
2019-04-06T16:36:43.147Z,21.50
2019-04-06T16:39:29.653Z,21.50
2019-04-06T16:42:00.926Z,21.50
2019-04-06T16:44:40.947Z,21.20
2019-04-06T16:47:28.308Z,21.00
2019-04-06T16:49:59.256Z,20.80
2019-04-06T16:52:39.368Z,20.50
2019-04-06T16:55:28.542Z,20.30
2019-04-06T16:58:16.030Z,19.80
2019-04-06T17:00:47.310Z,19.50
2019-04-06T17:03:24.975Z,19.00
2019-04-06T17:05:55.939Z,18.90
2019-04-06T17:08:39.011Z,18.90
2019-04-06T17:11:19.832Z,19.00
2019-04-06T17:13:53.778Z,19.00
2019-04-06T17:16:31.245Z,18.90
2019-04-06T17:19:02.310Z,18.90
2019-04-06T17:21:48.403Z,18.90
2019-04-06T17:24:36.272Z,18.80
2019-04-06T17:27:19.378Z,18.60
2019-04-06T17:30:08.311Z,18.40
2019-04-06T17:32:39.259Z,18.20
2019-04-06T17:35:10.469Z,18.10
2019-04-06T17:37:44.183Z,17.80
2019-04-06T17:40:24.010Z,17.70
2019-04-06T17:42:58.192Z,17.60
2019-04-06T17:45:44.387Z,17.50
2019-04-06T17:48:31.792Z,17.40
2019-04-06T17:51:02.713Z,17.30
2019-04-06T17:53:33.743Z,17.10
2019-04-06T17:56:20.934Z,17.00
2019-04-06T17:58:54.668Z,16.90
2019-04-06T18:01:28.522Z,16.70
2019-04-06T18:03:59.940Z,16.60
2019-04-06T18:06:36.852Z,16.40
2019-04-06T18:09:09.848Z,16.30
2019-04-06T18:11:52.922Z,16.10
2019-04-06T18:14:22.643Z,16.00
2019-04-06T18:16:51.948Z,15.80
2019-04-06T18:19:21.552Z,15.70
2019-04-06T18:21:51.635Z,15.60
2019-04-06T18:24:21.418Z,15.40
2019-04-06T18:26:51.233Z,15.30
2019-04-06T18:29:20.615Z,15.20
2019-04-06T18:32:08.377Z,15.10
2019-04-06T18:34:37.743Z,15.00
2019-04-06T18:37:21.378Z,14.90
2019-04-06T18:39:52.628Z,14.90
2019-04-06T18:42:21.915Z,14.80
2019-04-06T18:44:51.203Z,14.80
2019-04-06T18:47:20.929Z,14.70
2019-04-06T18:49:50.288Z,14.70
2019-04-06T18:52:19.993Z,14.60
2019-04-06T18:54:49.560Z,14.60
2019-04-06T18:57:18.851Z,14.50
2019-04-06T18:59:48.183Z,14.50
2019-04-06T19:02:17.531Z,14.40
2019-04-06T19:04:46.887Z,14.40
2019-04-06T19:07:16.408Z,14.40
2019-04-06T19:09:46.374Z,14.40
2019-04-06T19:12:15.732Z,14.40
2019-04-06T19:14:45.191Z,14.30
2019-04-06T19:17:14.476Z,14.30
2019-04-06T19:19:43.787Z,14.30
2019-04-06T19:22:13.538Z,14.20
2019-04-06T19:24:42.995Z,14.10
2019-04-06T19:27:12.537Z,14.10
2019-04-06T19:29:42.081Z,14.00
2019-04-06T19:32:11.824Z,13.90
2019-04-06T19:34:41.577Z,13.90
2019-04-06T19:37:11.186Z,13.90
2019-04-06T19:39:41.047Z,13.90
2019-04-06T19:42:10.392Z,13.90
2019-04-06T19:44:39.748Z,13.90
2019-04-06T19:47:09.165Z,13.90
2019-04-06T19:49:38.890Z,13.90
2019-04-06T19:52:08.440Z,13.90
2019-04-06T19:54:37.733Z,13.90
2019-04-06T19:57:07.081Z,13.90
2019-04-06T19:59:37.240Z,13.90
2019-04-06T20:02:06.598Z,13.90
2019-04-06T20:04:36.389Z,14.00
2019-04-06T20:07:05.900Z,14.00
2019-04-06T20:09:35.786Z,14.00
2019-04-06T20:12:07.717Z,14.00
2019-04-06T20:14:36.378Z,14.10
2019-04-06T20:17:06.852Z,14.10
2019-04-06T20:19:36.376Z,14.10
2019-04-06T20:22:05.708Z,14.10
2019-04-06T20:24:35.227Z,14.10
2019-04-06T20:27:04.646Z,14.10
2019-04-06T20:29:34.158Z,14.00
2019-04-06T20:32:03.543Z,14.10
2019-04-06T20:34:33.322Z,14.00
2019-04-06T20:37:04.019Z,14.00
2019-04-06T20:39:33.758Z,14.10
2019-04-06T20:42:03.999Z,14.10
2019-04-06T20:44:33.281Z,14.10
2019-04-06T20:47:02.591Z,14.10
2019-04-06T20:49:32.015Z,14.20
2019-04-06T20:52:01.873Z,14.20
2019-04-06T20:54:31.908Z,14.30
2019-04-06T20:57:01.658Z,14.30
2019-04-06T20:59:31.608Z,14.30
2019-04-06T21:02:01.268Z,14.40
2019-04-06T21:04:30.683Z,14.30
2019-04-06T21:06:59.992Z,14.40
2019-04-06T21:09:29.364Z,14.40
2019-04-06T21:11:58.667Z,14.40
2019-04-06T21:14:28.307Z,14.30
2019-04-06T21:16:57.759Z,14.30
2019-04-06T21:19:27.121Z,14.30
2019-04-06T21:21:58.702Z,14.40
2019-04-06T21:24:27.441Z,14.40
2019-04-06T21:26:57.103Z,14.30
2019-04-06T21:29:26.934Z,14.30
2019-04-06T21:31:56.484Z,14.20
2019-04-06T21:34:26.102Z,14.10
2019-04-06T21:36:55.621Z,14.10
2019-04-06T21:39:24.923Z,14.00
2019-04-06T21:41:54.280Z,14.00
2019-04-06T21:44:23.608Z,13.90
2019-04-06T21:46:52.903Z,13.90
2019-04-06T21:49:22.212Z,13.90
2019-04-06T21:51:51.583Z,13.90
2019-04-06T21:54:20.903Z,13.90
2019-04-06T21:56:50.511Z,13.90
2019-04-06T21:59:19.807Z,13.90
2019-04-06T22:01:49.187Z,14.00
2019-04-06T22:04:25.370Z,14.00
2019-04-06T22:06:49.492Z,14.10
2019-04-06T22:09:18.961Z,14.10
2019-04-06T22:11:48.268Z,14.10
2019-04-06T22:14:17.728Z,13.90
2019-04-06T22:16:47.484Z,13.90
2019-04-06T22:19:16.997Z,13.70
2019-04-06T22:21:46.362Z,13.60
2019-04-06T22:24:15.873Z,13.50
2019-04-06T22:26:45.913Z,13.40
2019-04-06T22:29:15.331Z,13.30
2019-04-06T22:31:44.880Z,13.30
2019-04-06T22:34:14.335Z,13.20
2019-04-06T22:36:43.641Z,13.10
2019-04-06T22:39:13.675Z,13.10
2019-04-06T22:41:43.347Z,13.00
2019-04-06T22:44:13.121Z,13.00
2019-04-06T22:46:43.019Z,13.00
2019-04-06T22:49:12.378Z,12.90
2019-04-06T22:51:42.208Z,12.90
2019-04-06T22:54:11.660Z,12.80
2019-04-06T22:56:40.923Z,12.80
2019-04-06T22:59:11.219Z,12.80
2019-04-06T23:01:41.804Z,12.80
2019-04-06T23:04:13.258Z,12.80
2019-04-06T23:06:44.781Z,12.80
2019-04-06T23:09:14.330Z,12.70
2019-04-06T23:11:44.753Z,12.70
2019-04-06T23:14:14.207Z,12.60
2019-04-06T23:16:43.758Z,12.60
2019-04-06T23:19:13.407Z,12.60
2019-04-06T23:21:42.927Z,12.60
2019-04-06T23:24:12.290Z,12.60
2019-04-06T23:26:41.944Z,12.50
2019-04-06T23:29:11.271Z,12.50
2019-04-06T23:31:40.579Z,12.40
2019-04-06T23:34:10.175Z,12.40
2019-04-06T23:36:39.623Z,12.30
2019-04-06T23:39:09.313Z,12.30
2019-04-06T23:41:39.085Z,12.30
2019-04-06T23:44:08.885Z,12.20
2019-04-06T23:46:38.402Z,12.20
2019-04-06T23:49:07.988Z,12.30
2019-04-06T23:51:37.300Z,12.30
2019-04-06T23:54:07.051Z,12.20
2019-04-06T23:56:36.790Z,12.20
2019-04-06T23:59:06.242Z,12.20
